sensor_id;sensor_type;location;lat;lon;timestamp;pressure;altitude;pressure_sealevel;temperature;humidity
51321;BME280;38732;49.556;6.286;2022-12-18T00:01:28;100722.69;;;-4.96;63.69
51321;BME280;38732;49.556;6.286;2022-12-18T00:03:56;100727.44;;;-5.09;63.60
51321;BME280;38732;49.556;6.286;2022-12-18T00:06:26;100730.72;;;-4.90;64.13
51321;BME280;38732;49.556;6.286;2022-12-18T00:08:57;100732.13;;;-4.83;63.80
51321;BME280;38732;49.556;6.286;2022-12-18T00:11:28;100737.63;;;-4.77;64.03
51321;BME280;38732;49.556;6.286;2022-12-18T00:13:59;100734.88;;;-4.80;62.85
51321;BME280;38732;49.556;6.286;2022-12-18T00:16:29;100728.47;;;-4.77;62.44
51321;BME280;38732;49.556;6.286;2022-12-18T00:18:57;100727.31;;;-4.70;62.40
51321;BME280;38732;49.556;6.286;2022-12-18T00:21:27;100725.03;;;-4.67;63.08
51321;BME280;38732;49.556;6.286;2022-12-18T00:23:57;100737.00;;;-4.74;63.67
51321;BME280;38732;49.556;6.286;2022-12-18T00:26:28;100731.34;;;-4.72;64.00
51321;BME280;38732;49.556;6.286;2022-12-18T00:29:01;100732.59;;;-4.57;64.68
51321;BME280;38732;49.556;6.286;2022-12-18T00:31:30;100733.84;;;-4.51;64.95
51321;BME280;38732;49.556;6.286;2022-12-18T00:33:58;100723.91;;;-4.60;65.22
51321;BME280;38732;49.556;6.286;2022-12-18T00:36:29;100727.91;;;-4.62;64.72
51321;BME280;38732;49.556;6.286;2022-12-18T00:38:59;100718.09;;;-4.69;64.18
51321;BME280;38732;49.556;6.286;2022-12-18T00:41:28;100720.00;;;-4.67;64.66
51321;BME280;38732;49.556;6.286;2022-12-18T00:43:56;100726.81;;;-4.66;64.84
51321;BME280;38732;49.556;6.286;2022-12-18T00:46:24;100724.78;;;-4.60;64.33
51321;BME280;38732;49.556;6.286;2022-12-18T00:48:53;100732.84;;;-4.64;65.02
51321;BME280;38732;49.556;6.286;2022-12-18T00:51:21;100724.78;;;-4.60;64.41
51321;BME280;38732;49.556;6.286;2022-12-18T00:53:49;100729.31;;;-4.56;64.50
51321;BME280;38732;49.556;6.286;2022-12-18T00:56:17;100731.63;;;-4.69;64.84
51321;BME280;38732;49.556;6.286;2022-12-18T00:58:45;100717.59;;;-4.55;65.85
51321;BME280;38732;49.556;6.286;2022-12-18T01:01:14;100714.97;;;-4.57;64.47
51321;BME280;38732;49.556;6.286;2022-12-18T01:03:42;100716.47;;;-4.59;64.64
51321;BME280;38732;49.556;6.286;2022-12-18T01:06:12;100714.78;;;-4.38;65.03
51321;BME280;38732;49.556;6.286;2022-12-18T01:08:41;100720.00;;;-4.57;63.98
51321;BME280;38732;49.556;6.286;2022-12-18T01:11:17;100716.72;;;-4.56;64.21
51321;BME280;38732;49.556;6.286;2022-12-18T01:13:46;100707.91;;;-4.61;64.77
51321;BME280;38732;49.556;6.286;2022-12-18T01:16:15;100700.97;;;-4.63;64.55
51321;BME280;38732;49.556;6.286;2022-12-18T01:18:44;100709.53;;;-4.61;64.12
51321;BME280;38732;49.556;6.286;2022-12-18T01:21:15;100712.69;;;-4.53;64.56
51321;BME280;38732;49.556;6.286;2022-12-18T01:23:43;100712.06;;;-4.61;64.10
51321;BME280;38732;49.556;6.286;2022-12-18T01:26:14;100714.22;;;-4.76;63.21
51321;BME280;38732;49.556;6.286;2022-12-18T01:28:43;100719.28;;;-4.86;63.36
51321;BME280;38732;49.556;6.286;2022-12-18T01:33:45;100718.75;;;-4.82;64.57
51321;BME280;38732;49.556;6.286;2022-12-18T01:36:24;100724.41;;;-4.74;64.11
51321;BME280;38732;49.556;6.286;2022-12-18T01:38:53;100727.22;;;-4.82;64.30
51321;BME280;38732;49.556;6.286;2022-12-18T01:41:25;100718.09;;;-4.69;64.62
51321;BME280;38732;49.556;6.286;2022-12-18T01:43:56;100720.38;;;-4.72;64.62
51321;BME280;38732;49.556;6.286;2022-12-18T01:46:26;100714.97;;;-4.87;62.70
51321;BME280;38732;49.556;6.286;2022-12-18T01:48:57;100720.03;;;-5.08;62.86
51321;BME280;38732;49.556;6.286;2022-12-18T01:51:29;100725.47;;;-5.03;62.60
51321;BME280;38732;49.556;6.286;2022-12-18T01:53:58;100727.72;;;-4.96;63.79
51321;BME280;38732;49.556;6.286;2022-12-18T01:56:27;100727.09;;;-5.04;63.93
51321;BME280;38732;49.556;6.286;2022-12-18T01:59:04;100717.53;;;-5.08;62.95
51321;BME280;38732;49.556;6.286;2022-12-18T02:01:34;100716.41;;;-5.22;61.86
51321;BME280;38732;49.556;6.286;2022-12-18T02:04:20;100724.06;;;-5.00;63.95
51321;BME280;38732;49.556;6.286;2022-12-18T02:07:05;100730.09;;;-4.87;64.53
51321;BME280;38732;49.556;6.286;2022-12-18T02:09:46;100734.03;;;-4.91;64.49
51321;BME280;38732;49.556;6.286;2022-12-18T02:12:19;100735.66;;;-5.02;63.44
51321;BME280;38732;49.556;6.286;2022-12-18T02:14:59;100731.38;;;-5.03;63.87
51321;BME280;38732;49.556;6.286;2022-12-18T02:17:38;100730.00;;;-4.99;63.11
51321;BME280;38732;49.556;6.286;2022-12-18T02:20:23;100715.50;;;-5.12;62.32
51321;BME280;38732;49.556;6.286;2022-12-18T02:23:06;100713.09;;;-5.00;63.85
51321;BME280;38732;49.556;6.286;2022-12-18T02:28:59;100708.84;;;-5.11;62.16
51321;BME280;38732;49.556;6.286;2022-12-18T02:31:35;100706.81;;;-5.26;61.14
51321;BME280;38732;49.556;6.286;2022-12-18T02:34:06;100703.53;;;-5.14;63.54
51321;BME280;38732;49.556;6.286;2022-12-18T02:36:39;100704.78;;;-5.09;63.67
51321;BME280;38732;49.556;6.286;2022-12-18T02:39:10;100697.38;;;-5.18;63.24
51321;BME280;38732;49.556;6.286;2022-12-18T02:41:40;100707.84;;;-5.03;64.03
51321;BME280;38732;49.556;6.286;2022-12-18T02:44:11;100702.66;;;-5.15;62.17
51321;BME280;38732;49.556;6.286;2022-12-18T02:46:45;100706.06;;;-5.14;63.53
51321;BME280;38732;49.556;6.286;2022-12-18T02:52:11;100710.84;;;-5.28;61.94
51321;BME280;38732;49.556;6.286;2022-12-18T02:55:16;100706.69;;;-5.27;63.18
51321;BME280;38732;49.556;6.286;2022-12-18T02:57:53;100711.47;;;-5.30;61.49
51321;BME280;38732;49.556;6.286;2022-12-18T03:00:33;100717.38;;;-5.30;62.74
51321;BME280;38732;49.556;6.286;2022-12-18T03:03:17;100713.34;;;-5.38;64.11
51321;BME280;38732;49.556;6.286;2022-12-18T03:05:53;100719.03;;;-5.30;63.17
51321;BME280;38732;49.556;6.286;2022-12-18T03:08:29;100724.44;;;-5.46;63.16
51321;BME280;38732;49.556;6.286;2022-12-18T03:11:02;100728.94;;;-5.32;63.38
51321;BME280;38732;49.556;6.286;2022-12-18T03:16:00;100729.63;;;-5.14;64.34
51321;BME280;38732;49.556;6.286;2022-12-18T03:18:39;100725.47;;;-5.13;64.46
51321;BME280;38732;49.556;6.286;2022-12-18T03:21:12;100726.56;;;-5.10;63.48
51321;BME280;38732;49.556;6.286;2022-12-18T03:23:46;100721.06;;;-5.06;64.36
51321;BME280;38732;49.556;6.286;2022-12-18T03:26:20;100713.84;;;-5.32;62.23
51321;BME280;38732;49.556;6.286;2022-12-18T03:28:53;100710.22;;;-5.25;61.85
51321;BME280;38732;49.556;6.286;2022-12-18T03:31:26;100706.56;;;-5.39;61.71
51321;BME280;38732;49.556;6.286;2022-12-18T03:33:59;100714.25;;;-5.27;62.10
51321;BME280;38732;49.556;6.286;2022-12-18T03:36:29;100711.38;;;-5.22;62.55
51321;BME280;38732;49.556;6.286;2022-12-18T03:38:57;100710.06;;;-5.27;62.26
51321;BME280;38732;49.556;6.286;2022-12-18T03:41:32;100711.47;;;-5.30;62.94
51321;BME280;38732;49.556;6.286;2022-12-18T03:44:27;100707.84;;;-5.34;62.55
51321;BME280;38732;49.556;6.286;2022-12-18T03:49:47;100700.91;;;-5.26;63.63
51321;BME280;38732;49.556;6.286;2022-12-18T03:52:26;100704.31;;;-5.26;63.48
51321;BME280;38732;49.556;6.286;2022-12-18T03:54:58;100710.72;;;-5.29;63.24
51321;BME280;38732;49.556;6.286;2022-12-18T03:57:30;100707.69;;;-5.46;62.34
51321;BME280;38732;49.556;6.286;2022-12-18T04:00:12;100718.47;;;-5.57;61.96
51321;BME280;38732;49.556;6.286;2022-12-18T04:02:45;100720.75;;;-5.50;62.38
51321;BME280;38732;49.556;6.286;2022-12-18T04:05:16;100718.00;;;-5.53;63.17
51321;BME280;38732;49.556;6.286;2022-12-18T04:07:47;100709.97;;;-5.49;62.19
51321;BME280;38732;49.556;6.286;2022-12-18T04:10:16;100703.66;;;-5.44;63.68
51321;BME280;38732;49.556;6.286;2022-12-18T04:12:45;100693.31;;;-5.47;62.84
51321;BME280;38732;49.556;6.286;2022-12-18T04:15:13;100704.03;;;-5.49;63.02
51321;BME280;38732;49.556;6.286;2022-12-18T04:17:47;100707.69;;;-5.56;62.09
51321;BME280;38732;49.556;6.286;2022-12-18T04:20:16;100704.03;;;-5.49;63.85
51321;BME280;38732;49.556;6.286;2022-12-18T04:22:45;100700.53;;;-5.51;62.50
51321;BME280;38732;49.556;6.286;2022-12-18T04:25:13;100695.50;;;-5.51;61.67
51321;BME280;38732;49.556;6.286;2022-12-18T04:27:42;100689.69;;;-5.40;64.32
51321;BME280;38732;49.556;6.286;2022-12-18T04:30:10;100688.56;;;-5.44;63.20
51321;BME280;38732;49.556;6.286;2022-12-18T04:32:39;100687.66;;;-5.54;62.20
51321;BME280;38732;49.556;6.286;2022-12-18T04:35:07;100690.06;;;-5.46;62.38
51321;BME280;38732;49.556;6.286;2022-12-18T04:37:35;100692.34;;;-5.49;62.22
51321;BME280;38732;49.556;6.286;2022-12-18T04:40:04;100690.06;;;-5.56;60.47
51321;BME280;38732;49.556;6.286;2022-12-18T04:42:32;100692.22;;;-5.50;60.59
51321;BME280;38732;49.556;6.286;2022-12-18T04:45:00;100695.88;;;-5.36;60.94
51321;BME280;38732;49.556;6.286;2022-12-18T04:47:29;100693.47;;;-5.45;61.29
51321;BME280;38732;49.556;6.286;2022-12-18T04:49:57;100693.84;;;-5.51;61.65
51321;BME280;38732;49.556;6.286;2022-12-18T04:52:25;100705.66;;;-5.60;61.58
51321;BME280;38732;49.556;6.286;2022-12-18T04:54:53;100706.50;;;-5.70;60.23
51321;BME280;38732;49.556;6.286;2022-12-18T04:57:22;100708.63;;;-5.74;60.51
51321;BME280;38732;49.556;6.286;2022-12-18T04:59:50;100727.19;;;-5.93;59.78
51321;BME280;38732;49.556;6.286;2022-12-18T05:02:18;100723.03;;;-6.02;60.55
51321;BME280;38732;49.556;6.286;2022-12-18T05:04:46;100718.38;;;-6.08;61.13
51321;BME280;38732;49.556;6.286;2022-12-18T05:07:14;100726.13;;;-6.15;61.37
51321;BME280;38732;49.556;6.286;2022-12-18T05:09:43;100719.41;;;-6.06;61.57
51321;BME280;38732;49.556;6.286;2022-12-18T05:12:11;100722.41;;;-6.00;64.37
51321;BME280;38732;49.556;6.286;2022-12-18T05:14:39;100714.84;;;-6.10;62.99
51321;BME280;38732;49.556;6.286;2022-12-18T05:17:07;100720.75;;;-6.10;62.55
51321;BME280;38732;49.556;6.286;2022-12-18T05:19:36;100722.25;;;-6.12;62.18
51321;BME280;38732;49.556;6.286;2022-12-18T05:22:04;100735.72;;;-6.11;62.02
51321;BME280;38732;49.556;6.286;2022-12-18T05:24:32;100722.34;;;-6.20;61.61
51321;BME280;38732;49.556;6.286;2022-12-18T05:27:00;100722.75;;;-6.16;62.47
51321;BME280;38732;49.556;6.286;2022-12-18T05:29:28;100724.13;;;-6.09;62.26
51321;BME280;38732;49.556;6.286;2022-12-18T05:31:57;100726.72;;;-5.99;63.61
51321;BME280;38732;49.556;6.286;2022-12-18T05:34:25;100722.81;;;-5.95;62.87
51321;BME280;38732;49.556;6.286;2022-12-18T05:36:53;100725.19;;;-5.97;61.64
51321;BME280;38732;49.556;6.286;2022-12-18T05:39:21;100731.25;;;-5.95;61.22
51321;BME280;38732;49.556;6.286;2022-12-18T05:41:49;100734.06;;;-6.11;59.38
51321;BME280;38732;49.556;6.286;2022-12-18T05:44:18;100745.44;;;-6.24;59.73
51321;BME280;38732;49.556;6.286;2022-12-18T05:46:46;100735.13;;;-6.27;60.74
51321;BME280;38732;49.556;6.286;2022-12-18T05:49:14;100740.91;;;-6.28;61.13
51321;BME280;38732;49.556;6.286;2022-12-18T05:51:42;100740.91;;;-6.28;62.56
51321;BME280;38732;49.556;6.286;2022-12-18T05:54:10;100745.00;;;-6.10;63.04
51321;BME280;38732;49.556;6.286;2022-12-18T05:56:39;100741.97;;;-6.16;63.10
51321;BME280;38732;49.556;6.286;2022-12-18T05:59:07;100734.81;;;-6.12;61.75
51321;BME280;38732;49.556;6.286;2022-12-18T06:01:35;100737.72;;;-6.07;60.82
51321;BME280;38732;49.556;6.286;2022-12-18T06:04:03;100748.53;;;-6.08;61.91
51321;BME280;38732;49.556;6.286;2022-12-18T06:06:32;100753.38;;;-6.20;61.00
51321;BME280;38732;49.556;6.286;2022-12-18T06:09:00;100753.06;;;-6.33;60.69
51321;BME280;38732;49.556;6.286;2022-12-18T06:11:28;100752.88;;;-6.26;60.54
51321;BME280;38732;49.556;6.286;2022-12-18T06:13:56;100746.56;;;-6.31;61.91
51321;BME280;38732;49.556;6.286;2022-12-18T06:16:26;100756.91;;;-6.18;61.63
51321;BME280;38732;49.556;6.286;2022-12-18T06:18:58;100752.81;;;-6.07;62.10
51321;BME280;38732;49.556;6.286;2022-12-18T06:21:28;100761.72;;;-6.11;61.80
51321;BME280;38732;49.556;6.286;2022-12-18T06:23:56;100752.47;;;-6.01;62.36
51321;BME280;38732;49.556;6.286;2022-12-18T06:26:25;100754.44;;;-6.08;60.78
51321;BME280;38732;49.556;6.286;2022-12-18T06:28:53;100767.84;;;-6.17;60.23
51321;BME280;38732;49.556;6.286;2022-12-18T06:31:21;100766.00;;;-6.10;61.20
51321;BME280;38732;49.556;6.286;2022-12-18T06:33:49;100768.69;;;-5.98;60.94
51321;BME280;38732;49.556;6.286;2022-12-18T06:36:18;100775.22;;;-6.00;61.71
51321;BME280;38732;49.556;6.286;2022-12-18T06:38:46;100780.19;;;-6.10;60.87
51321;BME280;38732;49.556;6.286;2022-12-18T06:41:20;100780.47;;;-6.07;61.40
51321;BME280;38732;49.556;6.286;2022-12-18T06:43:48;100775.97;;;-6.01;60.31
51321;BME280;38732;49.556;6.286;2022-12-18T06:46:16;100779.00;;;-5.95;60.08
51321;BME280;38732;49.556;6.286;2022-12-18T06:48:49;100781.69;;;-6.12;59.04
51321;BME280;38732;49.556;6.286;2022-12-18T06:51:19;100790.06;;;-6.22;59.81
51321;BME280;38732;49.556;6.286;2022-12-18T06:53:48;100799.69;;;-6.26;60.66
51321;BME280;38732;49.556;6.286;2022-12-18T06:56:16;100796.03;;;-6.30;61.42
51321;BME280;38732;49.556;6.286;2022-12-18T06:58:44;100792.50;;;-6.13;61.82
51321;BME280;38732;49.556;6.286;2022-12-18T07:01:13;100790.47;;;-6.17;62.19
51321;BME280;38732;49.556;6.286;2022-12-18T07:03:42;100792.91;;;-6.27;60.93
51321;BME280;38732;49.556;6.286;2022-12-18T07:06:21;100799.84;;;-6.25;61.16
51321;BME280;38732;49.556;6.286;2022-12-18T07:08:51;100803.13;;;-6.26;60.01
51321;BME280;38732;49.556;6.286;2022-12-18T07:11:19;100808.47;;;-6.51;59.98
51321;BME280;38732;49.556;6.286;2022-12-18T07:13:47;100809.09;;;-6.53;61.68
51321;BME280;38732;49.556;6.286;2022-12-18T07:16:17;100808.34;;;-6.52;60.83
51321;BME280;38732;49.556;6.286;2022-12-18T07:18:46;100807.72;;;-6.31;62.33
51321;BME280;38732;49.556;6.286;2022-12-18T07:21:17;100806.66;;;-6.24;61.60
51321;BME280;38732;49.556;6.286;2022-12-18T07:23:45;100809.53;;;-6.19;63.02
51321;BME280;38732;49.556;6.286;2022-12-18T07:26:16;100804.66;;;-6.18;62.18
51321;BME280;38732;49.556;6.286;2022-12-18T07:28:45;100798.41;;;-6.32;62.43
51321;BME280;38732;49.556;6.286;2022-12-18T07:31:16;100794.09;;;-6.43;60.85
51321;BME280;38732;49.556;6.286;2022-12-18T07:33:45;100793.13;;;-6.35;61.88
51321;BME280;38732;49.556;6.286;2022-12-18T07:36:13;100790.09;;;-6.12;63.34
51321;BME280;38732;49.556;6.286;2022-12-18T07:38:42;100789.44;;;-6.19;62.91
51321;BME280;38732;49.556;6.286;2022-12-18T07:41:11;100789.66;;;-6.26;61.04
51321;BME280;38732;49.556;6.286;2022-12-18T07:43:41;100788.16;;;-6.24;62.26
51321;BME280;38732;49.556;6.286;2022-12-18T07:46:12;100786.41;;;-6.25;62.76
51321;BME280;38732;49.556;6.286;2022-12-18T07:48:41;100792.31;;;-6.25;62.50
51321;BME280;38732;49.556;6.286;2022-12-18T07:51:10;100786.66;;;-6.22;63.41
51321;BME280;38732;49.556;6.286;2022-12-18T07:53:38;100786.50;;;-6.05;62.70
51321;BME280;38732;49.556;6.286;2022-12-18T07:56:09;100799.00;;;-5.96;63.18
51321;BME280;38732;49.556;6.286;2022-12-18T07:58:38;100786.16;;;-5.99;61.88
51321;BME280;38732;49.556;6.286;2022-12-18T08:01:08;100787.44;;;-5.94;62.35
51321;BME280;38732;49.556;6.286;2022-12-18T08:03:38;100782.66;;;-6.01;61.85
51321;BME280;38732;49.556;6.286;2022-12-18T08:06:09;100785.09;;;-5.72;61.04
51321;BME280;38732;49.556;6.286;2022-12-18T08:08:37;100789.63;;;-5.78;62.11
51321;BME280;38732;49.556;6.286;2022-12-18T08:11:05;100796.28;;;-5.79;61.74
51321;BME280;38732;49.556;6.286;2022-12-18T08:13:33;100800.72;;;-5.66;62.65
51321;BME280;38732;49.556;6.286;2022-12-18T08:16:06;100797.94;;;-5.69;62.33
51321;BME280;38732;49.556;6.286;2022-12-18T08:18:36;100801.91;;;-5.52;63.03
51321;BME280;38732;49.556;6.286;2022-12-18T08:21:15;100786.97;;;-5.40;61.87
51321;BME280;38732;49.556;6.286;2022-12-18T08:23:44;100781.41;;;-5.47;62.01
51321;BME280;38732;49.556;6.286;2022-12-18T08:26:12;100791.09;;;-5.51;62.19
51321;BME280;38732;49.556;6.286;2022-12-18T08:28:41;100784.69;;;-5.48;62.33
51321;BME280;38732;49.556;6.286;2022-12-18T08:31:10;100785.47;;;-5.38;61.68
51321;BME280;38732;49.556;6.286;2022-12-18T08:33:38;100806.47;;;-5.38;61.95
51321;BME280;38732;49.556;6.286;2022-12-18T08:36:08;100799.97;;;-5.15;65.63
51321;BME280;38732;49.556;6.286;2022-12-18T08:38:37;100801.63;;;-5.06;63.36
51321;BME280;38732;49.556;6.286;2022-12-18T08:41:08;100791.06;;;-5.02;62.57
51321;BME280;38732;49.556;6.286;2022-12-18T08:43:37;100785.66;;;-4.96;62.66
51321;BME280;38732;49.556;6.286;2022-12-18T08:46:05;100796.34;;;-4.78;63.84
51321;BME280;38732;49.556;6.286;2022-12-18T08:48:33;100801.53;;;-4.66;64.80
51321;BME280;38732;49.556;6.286;2022-12-18T08:51:01;100797.47;;;-4.44;66.62
51321;BME280;38732;49.556;6.286;2022-12-18T08:53:29;100791.53;;;-4.34;66.34
51321;BME280;38732;49.556;6.286;2022-12-18T08:55:58;100798.28;;;-4.13;68.05
51321;BME280;38732;49.556;6.286;2022-12-18T08:58:26;100807.88;;;-4.19;69.01
51321;BME280;38732;49.556;6.286;2022-12-18T09:00:59;100803.91;;;-4.99;76.83
51321;BME280;38732;49.556;6.286;2022-12-18T09:03:27;100805.84;;;-4.13;73.52
51321;BME280;38732;49.556;6.286;2022-12-18T09:05:56;100805.72;;;-3.72;72.27
51321;BME280;38732;49.556;6.286;2022-12-18T09:08:26;100804.19;;;-3.70;72.12
51321;BME280;38732;49.556;6.286;2022-12-18T09:10:55;100792.59;;;-4.10;76.98
51321;BME280;38732;49.556;6.286;2022-12-18T09:13:23;100789.59;;;-3.52;73.78
51321;BME280;38732;49.556;6.286;2022-12-18T09:15:52;100791.50;;;-2.93;71.95
51321;BME280;38732;49.556;6.286;2022-12-18T09:18:23;100787.59;;;-3.12;73.21
51321;BME280;38732;49.556;6.286;2022-12-18T09:20:51;100784.28;;;-3.55;74.28
51321;BME280;38732;49.556;6.286;2022-12-18T09:23:20;100792.09;;;-2.74;71.16
51321;BME280;38732;49.556;6.286;2022-12-18T09:25:49;100793.81;;;-3.18;72.95
51321;BME280;38732;49.556;6.286;2022-12-18T09:28:18;100798.44;;;-3.79;76.44
51321;BME280;38732;49.556;6.286;2022-12-18T09:30:48;100782.72;;;-3.20;73.20
51321;BME280;38732;49.556;6.286;2022-12-18T09:33:17;100780.31;;;-2.40;70.44
51321;BME280;38732;49.556;6.286;2022-12-18T09:35:46;100771.84;;;-2.17;68.63
51321;BME280;38732;49.556;6.286;2022-12-18T09:38:16;100773.25;;;-2.08;68.18
51321;BME280;38732;49.556;6.286;2022-12-18T09:40:51;100770.72;;;-2.08;68.16
51321;BME280;38732;49.556;6.286;2022-12-18T09:43:28;100769.81;;;-1.85;67.59
51321;BME280;38732;49.556;6.286;2022-12-18T09:46:01;100762.06;;;-1.52;66.72
51321;BME280;38732;49.556;6.286;2022-12-18T09:48:34;100756.88;;;-1.53;67.46
51321;BME280;38732;49.556;6.286;2022-12-18T09:51:15;100753.66;;;-1.39;66.90
51321;BME280;38732;49.556;6.286;2022-12-18T09:53:50;100749.41;;;-1.26;66.04
51321;BME280;38732;49.556;6.286;2022-12-18T09:56:21;100751.66;;;-1.18;66.00
51321;BME280;38732;49.556;6.286;2022-12-18T09:58:57;100754.50;;;-1.38;67.45
51321;BME280;38732;49.556;6.286;2022-12-18T10:01:27;100750.84;;;-1.05;66.42
51321;BME280;38732;49.556;6.286;2022-12-18T10:03:55;100738.97;;;-0.93;66.24
51321;BME280;38732;49.556;6.286;2022-12-18T10:06:35;100742.31;;;-0.94;66.40
51321;BME280;38732;49.556;6.286;2022-12-18T10:09:12;100735.28;;;-0.98;66.55
51321;BME280;38732;49.556;6.286;2022-12-18T10:12:23;100729.69;;;-0.67;65.38
51321;BME280;38732;49.556;6.286;2022-12-18T10:15:10;100727.66;;;-0.59;64.77
51321;BME280;38732;49.556;6.286;2022-12-18T10:17:50;100734.59;;;-0.44;65.14
51321;BME280;38732;49.556;6.286;2022-12-18T10:26:05;100719.84;;;-0.36;63.93
51321;BME280;38732;49.556;6.286;2022-12-18T10:28:36;100709.22;;;-0.17;63.75
51321;BME280;38732;49.556;6.286;2022-12-18T10:31:34;100705.00;;;-0.03;63.58
51321;BME280;38732;49.556;6.286;2022-12-18T10:34:02;100698.94;;;-0.05;64.53
51321;BME280;38732;49.556;6.286;2022-12-18T10:36:31;100698.34;;;-0.01;64.08
51321;BME280;38732;49.556;6.286;2022-12-18T10:39:23;100701.00;;;0.01;64.66
51321;BME280;38732;49.556;6.286;2022-12-18T10:41:51;100711.72;;;-0.04;63.94
51321;BME280;38732;49.556;6.286;2022-12-18T10:44:32;100711.88;;;-1.57;71.71
51321;BME280;38732;49.556;6.286;2022-12-18T10:47:06;100695.38;;;-1.00;68.00
51321;BME280;38732;49.556;6.286;2022-12-18T10:49:47;100694.78;;;-0.31;65.38
51321;BME280;38732;49.556;6.286;2022-12-18T10:55:04;100681.44;;;-0.01;64.22
51321;BME280;38732;49.556;6.286;2022-12-18T10:57:38;100666.78;;;0.09;63.81
51321;BME280;38732;49.556;6.286;2022-12-18T11:00:30;100662.19;;;-0.52;67.17
51321;BME280;38732;49.556;6.286;2022-12-18T11:02:58;100661.38;;;0.17;64.51
51321;BME280;38732;49.556;6.286;2022-12-18T11:05:32;100671.56;;;-1.16;70.07
51321;BME280;38732;49.556;6.286;2022-12-18T11:08:01;100666.50;;;-0.64;67.67
51321;BME280;38732;49.556;6.286;2022-12-18T11:10:33;100659.00;;;0.06;64.84
51321;BME280;38732;49.556;6.286;2022-12-18T11:13:16;100654.47;;;0.15;64.74
51321;BME280;38732;49.556;6.286;2022-12-18T11:15:46;100653.41;;;0.39;64.26
51321;BME280;38732;49.556;6.286;2022-12-18T11:18:29;100653.22;;;0.36;63.49
51321;BME280;38732;49.556;6.286;2022-12-18T11:21:09;100649.75;;;0.49;62.99
51321;BME280;38732;49.556;6.286;2022-12-18T11:23:53;100643.41;;;0.71;61.35
51321;BME280;38732;49.556;6.286;2022-12-18T11:26:33;100653.56;;;0.85;61.68
51321;BME280;38732;49.556;6.286;2022-12-18T11:29:12;100660.78;;;0.93;60.94
51321;BME280;38732;49.556;6.286;2022-12-18T11:31:43;100662.41;;;0.62;62.19
51321;BME280;38732;49.556;6.286;2022-12-18T11:34:30;100659.13;;;0.50;63.36
51321;BME280;38732;49.556;6.286;2022-12-18T11:37:00;100662.81;;;-0.01;65.52
51321;BME280;38732;49.556;6.286;2022-12-18T11:39:38;100656.66;;;0.52;63.30
51321;BME280;38732;49.556;6.286;2022-12-18T11:42:19;100659.69;;;0.89;62.81
51321;BME280;38732;49.556;6.286;2022-12-18T11:44:50;100650.94;;;0.99;60.78
51321;BME280;38732;49.556;6.286;2022-12-18T11:47:28;100653.16;;;1.07;62.88
51321;BME280;38732;49.556;6.286;2022-12-18T11:50:01;100634.38;;;1.20;59.96
51321;BME280;38732;49.556;6.286;2022-12-18T11:52:38;100635.50;;;1.11;60.19
51321;BME280;38732;49.556;6.286;2022-12-18T11:55:15;100627.94;;;1.27;59.94
51321;BME280;38732;49.556;6.286;2022-12-18T11:57:50;100620.75;;;1.20;60.67
51321;BME280;38732;49.556;6.286;2022-12-18T12:00:23;100630.66;;;0.56;63.05
51321;BME280;38732;49.556;6.286;2022-12-18T12:06:06;100622.69;;;1.24;59.59
51321;BME280;38732;49.556;6.286;2022-12-18T12:12:02;100613.63;;;1.29;59.91
51321;BME280;38732;49.556;6.286;2022-12-18T12:15:01;100612.66;;;1.27;60.53
51321;BME280;38732;49.556;6.286;2022-12-18T12:17:38;100611.06;;;1.44;59.92
51321;BME280;38732;49.556;6.286;2022-12-18T12:20:20;100606.94;;;1.46;59.44
51321;BME280;38732;49.556;6.286;2022-12-18T12:23:20;100590.97;;;1.48;59.65
51321;BME280;38732;49.556;6.286;2022-12-18T12:25:59;100581.75;;;1.50;59.59
51321;BME280;38732;49.556;6.286;2022-12-18T12:28:57;100590.31;;;1.67;59.75
51321;BME280;38732;49.556;6.286;2022-12-18T12:37:19;100584.88;;;1.61;60.17
51321;BME280;38732;49.556;6.286;2022-12-18T12:39:51;100597.97;;;0.92;62.93
51321;BME280;38732;49.556;6.286;2022-12-18T12:42:59;100596.06;;;0.58;64.46
51321;BME280;38732;49.556;6.286;2022-12-18T12:45:34;100599.31;;;0.70;63.68
51321;BME280;38732;49.556;6.286;2022-12-18T12:48:07;100599.06;;;-0.60;67.78
51321;BME280;38732;49.556;6.286;2022-12-18T12:50:41;100596.72;;;-0.44;69.61
51321;BME280;38732;49.556;6.286;2022-12-18T12:53:20;100601.06;;;-0.15;69.24
51321;BME280;38732;49.556;6.286;2022-12-18T12:55:50;100597.03;;;0.17;68.09
51321;BME280;38732;49.556;6.286;2022-12-18T13:01:25;100596.03;;;0.00;66.98
51321;BME280;38732;49.556;6.286;2022-12-18T13:09:12;100573.03;;;1.31;62.77
51321;BME280;38732;49.556;6.286;2022-12-18T13:11:45;100570.97;;;0.49;64.87
51321;BME280;38732;49.556;6.286;2022-12-18T13:14:22;100560.75;;;1.23;63.45
51321;BME280;38732;49.556;6.286;2022-12-18T13:16:51;100570.00;;;0.32;66.22
51321;BME280;38732;49.556;6.286;2022-12-18T13:19:23;100574.31;;;0.48;65.61
51321;BME280;38732;49.556;6.286;2022-12-18T13:21:55;100571.84;;;0.94;64.90
51321;BME280;38732;49.556;6.286;2022-12-18T13:24:30;100560.44;;;1.48;62.67
51321;BME280;38732;49.556;6.286;2022-12-18T13:26:59;100556.22;;;1.49;61.67
51321;BME280;38732;49.556;6.286;2022-12-18T13:29:46;100549.69;;;1.54;59.90
51321;BME280;38732;49.556;6.286;2022-12-18T13:32:22;100551.47;;;1.55;61.55
51321;BME280;38732;49.556;6.286;2022-12-18T13:37:58;100535.31;;;1.71;60.39
51321;BME280;38732;49.556;6.286;2022-12-18T13:43:24;100539.19;;;1.48;61.15
51321;BME280;38732;49.556;6.286;2022-12-18T13:46:03;100539.47;;;1.69;60.31
51321;BME280;38732;49.556;6.286;2022-12-18T13:48:36;100547.06;;;0.31;67.00
51321;BME280;38732;49.556;6.286;2022-12-18T13:51:09;100545.66;;;0.95;64.55
51321;BME280;38732;49.556;6.286;2022-12-18T13:54:20;100543.88;;;0.05;65.93
51321;BME280;38732;49.556;6.286;2022-12-18T13:56:50;100527.69;;;1.23;64.64
51321;BME280;38732;49.556;6.286;2022-12-18T13:59:22;100527.19;;;1.62;61.67
51321;BME280;38732;49.556;6.286;2022-12-18T14:01:59;100527.34;;;1.48;62.15
51321;BME280;38732;49.556;6.286;2022-12-18T14:04:32;100537.19;;;1.11;62.32
51321;BME280;38732;49.556;6.286;2022-12-18T14:07:14;100534.59;;;1.57;61.33
51321;BME280;38732;49.556;6.286;2022-12-18T14:09:44;100548.28;;;0.82;64.50